< < Back
Terminal Aerodrome Forecast


Current Version              Previous Versions:   1  2  3  4  5  6  7  8  9  

Terminal Aerodrome Forecast

914
FTUS42 KJAX 221700
TAFJAX
TAF
KJAX 221734Z 2218/2318 04009KT P6SM SKC
     FM230200 01003KT P6SM SKC
     FM231400 03009KT P6SM SKC=



Latest METAR

412
SAUS80 KWBC 222300
MTRJAX
METAR KJAX 222256Z 05004KT 10SM FEW250 18/13 A3001 RMK AO2 SLP162
T01780128 $


USA.gov is the U.S. government's official web portal to all federal, state and local government web resources and services.